Nora, Indiana
Current Conditions -  °F | °C
As of 2:53 AM on Monday 22 Dec 2014 (Local Time) from KEYE Reporting Station
Clear Clear  
Wind Chill: 27°   Ceiling: Unl
Heat Index: 27°   Visibility: 7mi
Dew Point: 24°   Wind: 3mph
Humidity: 89%   Direction: 90°E
Pressure: 30.01"   Gusts: NA
Location:  39.8971°N, 86.18°W
Report Text: KEYE 220753Z AUTO 09003KT 7SM CLR M03/M04 A3001 RMK AO2 SLP171 T10281044
Loading
Personal Weather Stations






























Interactive Weather Map New forecast layout! Learn more

10-Day Weather Forecast

Advertisements
Track Severe Weather on mobile